DTW weather

Detroit Metropolitan Wayne County Airport
Detroit, Michigan, United States

Public forecast

Using degrees Fahrenheit for public forecast. Weather courtesy of forecast.io.

Current aviation weather report (METAR) for Detroit Metropolitan Wayne County Airport

Retrieved 2019/10/20 19:53 UTC (10 minutes ago):

KDTW 201953Z 17003KT 10SM FEW080 19/09 A2989 RMK AO2 SLP120 T01940094

Aviation forecast (TAF) for Detroit Metropolitan Wayne County Airport

Retrieved 2019/10/20 18:22 UTC (2 hours ago):

TAF KDTW 201720Z 2018/2124 32005KT P6SM FEW045 SCT060 FM210000 06005KT P6SM SCT040 BKN200 FM211000 09006KT P6SM BKN060 OVC120 FM211600 11012G20KT P6SM BKN045 OVC090 FM212000 12014G22KT 5SM -SHRA BKN025 OVC045